createdAt,value
2018-01-15T00:00:19.358Z,18.93
2018-01-15T00:02:47.203Z,13.83
2018-01-15T00:05:15.049Z,16.43
2018-01-15T00:07:43.021Z,17.13
2018-01-15T00:10:10.912Z,16.60
2018-01-15T00:12:38.799Z,17.43
2018-01-15T00:15:06.689Z,15.70
2018-01-15T00:17:34.552Z,17.13
2018-01-15T00:20:02.426Z,17.80
2018-01-15T00:22:32.231Z,13.00
2018-01-15T00:25:00.084Z,16.57
2018-01-15T00:27:27.966Z,17.90
2018-01-15T00:29:55.867Z,16.47
2018-01-15T00:32:23.741Z,15.67
2018-01-15T00:34:51.603Z,16.93
2018-01-15T00:37:19.475Z,18.40
2018-01-15T00:39:47.339Z,18.40
2018-01-15T00:42:15.172Z,17.87
2018-01-15T00:44:43.037Z,19.40
2018-01-15T00:47:10.897Z,17.60
2018-01-15T00:49:38.755Z,19.20
2018-01-15T00:52:06.623Z,16.43
2018-01-15T00:54:34.472Z,16.53
2018-01-15T00:57:02.307Z,16.07
2018-01-15T00:59:30.195Z,18.70
2018-01-15T01:01:58.044Z,17.80
2018-01-15T01:04:25.892Z,19.60
2018-01-15T01:06:53.756Z,18.50
2018-01-15T01:09:21.597Z,19.83
2018-01-15T01:11:49.457Z,19.93
2018-01-15T01:14:17.367Z,18.10
2018-01-15T01:16:45.689Z,19.23
2018-01-15T01:19:13.627Z,19.10
2018-01-15T01:21:41.543Z,17.97
2018-01-15T01:24:09.399Z,18.17
2018-01-15T01:26:37.278Z,20.20
2018-01-15T01:29:05.171Z,16.23
2018-01-15T01:31:33.072Z,19.97
2018-01-15T01:34:00.933Z,15.70
2018-01-15T01:36:28.800Z,16.13
2018-01-15T01:38:56.663Z,18.03
2018-01-15T01:41:24.502Z,14.10
2018-01-15T01:43:52.368Z,18.90
2018-01-15T01:46:20.224Z,15.47
2018-01-15T01:48:54.111Z,15.80
2018-01-15T01:51:21.965Z,16.47
2018-01-15T01:53:49.806Z,13.83
2018-01-15T01:56:17.682Z,13.47
2018-01-15T01:58:45.532Z,18.70
2018-01-15T02:01:13.389Z,19.37
2018-01-15T02:03:41.272Z,19.70
2018-01-15T02:06:09.134Z,14.70
2018-01-15T02:08:36.976Z,16.73
2018-01-15T02:11:04.864Z,18.80
2018-01-15T02:13:32.713Z,18.60
2018-01-15T02:16:00.561Z,18.97
2018-01-15T02:18:28.428Z,19.70
2018-01-15T02:20:56.283Z,15.67
2018-01-15T02:23:24.124Z,11.87
2018-01-15T02:25:52.016Z,18.00
2018-01-15T02:28:19.859Z,20.77
2018-01-15T02:30:47.720Z,20.90
2018-01-15T02:33:15.654Z,19.50
2018-01-15T02:35:43.508Z,19.37
2018-01-15T02:38:11.375Z,21.57
2018-01-15T02:40:39.715Z,15.60
2018-01-15T02:43:07.658Z,19.57
2018-01-15T02:45:35.520Z,18.63
2018-01-15T02:48:03.393Z,19.97
2018-01-15T02:50:31.237Z,21.90
2018-01-15T02:52:59.083Z,21.33
2018-01-15T02:55:26.952Z,20.77
2018-01-15T02:57:54.790Z,19.30
2018-01-15T03:00:22.662Z,20.97
2018-01-15T03:02:50.554Z,20.13
2018-01-15T03:05:18.387Z,20.63
2018-01-15T03:07:46.267Z,21.33
2018-01-15T03:10:14.216Z,19.27
2018-01-15T03:12:42.065Z,17.90
2018-01-15T03:15:09.915Z,17.43
2018-01-15T03:17:37.785Z,21.03
2018-01-15T03:20:05.621Z,21.27
2018-01-15T03:22:33.480Z,15.93
2018-01-15T03:25:01.366Z,21.87
2018-01-15T03:27:29.227Z,20.37
2018-01-15T03:29:57.081Z,18.73
2018-01-15T03:32:24.949Z,19.57
2018-01-15T03:34:52.847Z,21.20
2018-01-15T03:37:20.689Z,17.10
2018-01-15T03:39:48.637Z,20.23
2018-01-15T03:42:16.474Z,21.83
2018-01-15T03:44:44.375Z,18.10
2018-01-15T03:47:12.254Z,19.77
2018-01-15T03:49:40.104Z,15.70
2018-01-15T03:52:07.959Z,16.20
2018-01-15T03:54:35.899Z,20.87
2018-01-15T03:57:03.756Z,20.03
2018-01-15T03:59:31.596Z,18.53
2018-01-15T04:01:59.464Z,20.20
2018-01-15T04:04:27.337Z,21.80
2018-01-15T04:06:55.175Z,21.03
2018-01-15T04:09:23.043Z,18.10
2018-01-15T04:11:50.876Z,21.07
2018-01-15T04:14:18.707Z,21.53
2018-01-15T04:16:46.572Z,20.33
2018-01-15T04:19:14.430Z,21.70
2018-01-15T04:21:42.273Z,21.13
2018-01-15T04:24:10.345Z,19.17
2018-01-15T04:26:38.200Z,19.07
2018-01-15T04:29:06.049Z,20.70
2018-01-15T04:31:33.963Z,19.50
2018-01-15T04:34:01.800Z,17.73
2018-01-15T04:36:29.721Z,17.30
2018-01-15T04:38:57.595Z,21.53
2018-01-15T04:41:25.435Z,21.90
2018-01-15T04:43:53.271Z,21.47
2018-01-15T04:46:21.356Z,16.57
2018-01-15T04:48:49.204Z,20.03
2018-01-15T04:51:17.056Z,20.27
2018-01-15T04:53:44.920Z,22.13
2018-01-15T04:56:12.782Z,20.10
2018-01-15T04:58:40.624Z,21.90
2018-01-15T05:01:08.621Z,14.47
2018-01-15T05:03:36.504Z,18.33
2018-01-15T05:06:04.353Z,20.67
2018-01-15T05:08:32.225Z,19.30
2018-01-15T05:11:00.090Z,21.70
2018-01-15T05:13:27.952Z,17.87
2018-01-15T05:15:56.659Z,19.93
2018-01-15T05:18:24.503Z,20.37
2018-01-15T05:20:52.364Z,16.00
2018-01-15T05:23:20.249Z,21.10
2018-01-15T05:25:48.223Z,21.40
2018-01-15T05:28:16.068Z,21.37
2018-01-15T05:30:43.937Z,16.97
2018-01-15T05:33:11.787Z,16.77
2018-01-15T05:35:40.480Z,20.20
2018-01-15T05:38:08.402Z,19.87
2018-01-15T05:40:36.251Z,19.53
2018-01-15T05:43:04.156Z,18.80
2018-01-15T05:45:32.021Z,18.10
2018-01-15T05:47:59.860Z,21.10
2018-01-15T05:50:27.729Z,22.10
2018-01-15T05:52:55.656Z,22.13
2018-01-15T05:55:23.496Z,21.03
2018-01-15T05:57:51.420Z,19.23
2018-01-15T06:00:19.296Z,21.30
2018-01-15T06:02:47.138Z,22.00
2018-01-15T06:05:15.019Z,23.60
2018-01-15T06:07:42.901Z,19.70
2018-01-15T06:10:10.752Z,21.23
2018-01-15T06:12:38.682Z,21.47
2018-01-15T06:15:06.595Z,23.23
2018-01-15T06:17:34.463Z,20.13
2018-01-15T06:20:02.340Z,17.40
2018-01-15T06:22:30.222Z,21.33
2018-01-15T06:24:58.087Z,17.73
2018-01-15T06:27:25.934Z,21.20
2018-01-15T06:29:53.808Z,24.60
2018-01-15T06:32:21.656Z,19.80
2018-01-15T06:34:49.562Z,21.17
2018-01-15T06:37:17.439Z,19.10
2018-01-15T06:39:45.338Z,22.53
2018-01-15T06:42:13.235Z,19.93
2018-01-15T06:44:41.131Z,23.90
2018-01-15T06:47:09.067Z,21.63
2018-01-15T06:49:36.939Z,21.30
2018-01-15T06:52:04.834Z,20.60
2018-01-15T06:54:32.692Z,20.20
2018-01-15T06:57:00.549Z,22.80
2018-01-15T06:59:28.435Z,19.73
2018-01-15T07:01:56.295Z,21.27
2018-01-15T07:04:24.139Z,21.50
2018-01-15T07:06:52.013Z,21.40
2018-01-15T07:09:19.862Z,16.67
2018-01-15T07:11:47.724Z,18.90
2018-01-15T07:14:15.627Z,22.60
2018-01-15T07:16:43.490Z,18.63
2018-01-15T07:19:11.344Z,20.00
2018-01-15T07:21:39.229Z,18.07
2018-01-15T07:24:07.094Z,17.63
2018-01-15T07:26:34.924Z,17.40
2018-01-15T07:29:02.856Z,18.20
2018-01-15T07:31:30.711Z,19.63
2018-01-15T07:33:58.552Z,19.40
2018-01-15T07:36:26.450Z,22.70
2018-01-15T07:38:54.308Z,22.63
2018-01-15T07:41:22.213Z,21.97
2018-01-15T07:43:50.069Z,21.30
2018-01-15T07:46:17.916Z,22.10
2018-01-15T07:48:45.784Z,21.03
2018-01-15T07:51:13.672Z,20.47
2018-01-15T07:53:41.526Z,21.77
2018-01-15T07:56:09.364Z,23.70
2018-01-15T07:58:37.310Z,22.00
2018-01-15T08:01:05.157Z,21.10
2018-01-15T08:03:33.009Z,23.43
2018-01-15T08:06:00.884Z,20.30
2018-01-15T08:08:28.742Z,22.30
2018-01-15T08:10:56.581Z,21.50
2018-01-15T08:13:24.489Z,20.37
2018-01-15T08:15:52.331Z,18.80
2018-01-15T08:18:20.187Z,19.60
2018-01-15T08:20:48.080Z,22.00
2018-01-15T08:23:15.909Z,20.63
2018-01-15T08:25:43.739Z,22.97
2018-01-15T08:28:11.599Z,16.57
2018-01-15T08:30:39.537Z,18.03
2018-01-15T08:33:07.389Z,19.37
2018-01-15T08:35:35.285Z,19.57
2018-01-15T08:38:04.115Z,17.83
2018-01-15T08:40:31.949Z,18.17
2018-01-15T08:42:59.840Z,16.80
2018-01-15T08:45:27.695Z,19.73
2018-01-15T08:47:55.548Z,20.60
2018-01-15T08:50:23.438Z,19.50
2018-01-15T08:52:51.286Z,19.40
2018-01-15T08:55:19.138Z,16.83
2018-01-15T08:57:47.011Z,17.67
2018-01-15T09:00:14.889Z,18.10
2018-01-15T09:02:42.740Z,19.63
2018-01-15T09:05:10.612Z,17.30
2018-01-15T09:07:38.525Z,15.17
2018-01-15T09:10:06.365Z,17.97
2018-01-15T09:12:34.223Z,17.77
2018-01-15T09:15:02.121Z,17.93
2018-01-15T09:17:29.933Z,15.90
2018-01-15T09:19:57.785Z,14.87
2018-01-15T09:22:25.655Z,16.37
2018-01-15T09:24:53.503Z,15.30
2018-01-15T09:27:21.373Z,15.20
2018-01-15T09:29:49.212Z,17.03
2018-01-15T09:35:14.508Z,18.50
2018-01-15T09:37:42.363Z,17.37
2018-01-15T09:40:10.243Z,17.87
2018-01-15T09:42:38.099Z,17.97
2018-01-15T09:45:05.937Z,16.70
2018-01-15T09:47:33.776Z,14.83
2018-01-15T09:50:01.824Z,17.57
2018-01-15T09:52:29.864Z,15.10
2018-01-15T09:54:57.692Z,17.70
2018-01-15T09:57:25.928Z,17.33
2018-01-15T09:59:53.966Z,16.17
2018-01-15T10:02:21.824Z,13.10
2018-01-15T10:04:49.842Z,14.73
2018-01-15T10:07:19.783Z,15.70
2018-01-15T10:09:47.723Z,11.23
2018-01-15T10:12:15.623Z,16.03
2018-01-15T10:14:43.525Z,13.97
2018-01-15T10:17:11.366Z,16.30
2018-01-15T10:19:39.289Z,15.03
2018-01-15T10:22:07.371Z,16.40
2018-01-15T10:24:35.315Z,13.50
2018-01-15T10:27:03.217Z,14.03
2018-01-15T10:29:31.356Z,10.10
2018-01-15T10:31:59.211Z,14.20
2018-01-15T10:34:27.759Z,16.30
2018-01-15T10:36:55.623Z,12.87
2018-01-15T10:39:23.497Z,17.27
2018-01-15T10:41:51.396Z,13.07
2018-01-15T10:44:19.237Z,11.60
2018-01-15T10:46:47.092Z,17.27
2018-01-15T10:49:14.952Z,13.77
2018-01-15T10:51:42.804Z,14.97
2018-01-15T10:54:10.653Z,13.87
2018-01-15T10:56:38.675Z,14.70
2018-01-15T10:59:06.621Z,10.47
2018-01-15T11:01:34.639Z,13.60
2018-01-15T11:04:02.520Z,10.50
2018-01-15T11:06:30.423Z,12.93
2018-01-15T11:08:58.726Z,10.20
2018-01-15T11:11:26.700Z,11.70
2018-01-15T11:13:54.548Z,11.60
2018-01-15T11:16:22.424Z,12.87
2018-01-15T11:18:50.303Z,14.50
2018-01-15T11:21:18.150Z,12.60
2018-01-15T11:23:46.077Z,12.23
2018-01-15T11:26:13.881Z,12.43
2018-01-15T11:28:41.720Z,12.87
2018-01-15T11:31:09.557Z,14.33
2018-01-15T11:33:37.412Z,13.90
2018-01-15T11:36:05.288Z,9.17
2018-01-15T11:38:33.142Z,11.73
2018-01-15T11:41:01.001Z,11.90
2018-01-15T11:43:28.872Z,13.10
2018-01-15T11:45:57.130Z,12.67
2018-01-15T11:48:25.020Z,12.90
2018-01-15T11:50:52.847Z,12.20
2018-01-15T11:53:20.685Z,10.77
2018-01-15T11:55:48.571Z,11.90
2018-01-15T11:58:16.456Z,12.73
2018-01-15T12:00:44.291Z,12.50
2018-01-15T12:03:12.167Z,12.47
2018-01-15T12:05:40.007Z,12.80
2018-01-15T12:08:07.850Z,11.50
2018-01-15T12:10:35.728Z,12.63
2018-01-15T12:13:03.601Z,12.07
2018-01-15T12:15:31.444Z,12.20
2018-01-15T12:17:59.317Z,7.60
2018-01-15T12:20:27.147Z,7.87
2018-01-15T12:22:54.994Z,12.27
2018-01-15T12:25:22.852Z,12.13
2018-01-15T12:27:50.688Z,12.33
2018-01-15T12:30:18.520Z,9.83
2018-01-15T12:32:46.393Z,10.00
2018-01-15T12:35:14.250Z,11.70
2018-01-15T12:37:42.088Z,11.80
2018-01-15T12:40:10.035Z,10.87
2018-01-15T12:42:37.887Z,12.20
2018-01-15T12:45:05.778Z,10.90
2018-01-15T12:47:33.687Z,12.10
2018-01-15T12:50:01.620Z,10.30
2018-01-15T12:52:29.504Z,10.70
2018-01-15T12:54:57.376Z,11.53
2018-01-15T12:57:25.816Z,10.97
2018-01-15T12:59:53.668Z,12.37
2018-01-15T13:02:21.552Z,11.40
2018-01-15T13:04:49.399Z,11.97
2018-01-15T13:07:23.247Z,11.80
2018-01-15T13:09:51.085Z,12.93
2018-01-15T13:12:18.992Z,8.97
2018-01-15T13:14:46.840Z,11.93
2018-01-15T13:17:14.731Z,10.93
2018-01-15T13:19:42.591Z,12.73
2018-01-15T13:22:10.528Z,11.40
2018-01-15T13:24:38.363Z,11.30
2018-01-15T13:27:06.218Z,9.83
2018-01-15T13:29:34.158Z,10.43
2018-01-15T13:32:02.003Z,10.87
2018-01-15T13:34:29.851Z,11.53
2018-01-15T13:36:57.720Z,11.70
2018-01-15T13:39:25.552Z,9.87
2018-01-15T13:41:53.449Z,12.60
2018-01-15T13:44:21.344Z,13.60
2018-01-15T13:46:49.187Z,11.37
2018-01-15T13:49:17.018Z,11.10
2018-01-15T13:51:44.871Z,11.03
2018-01-15T13:54:12.700Z,12.93
2018-01-15T13:56:40.523Z,11.20
2018-01-15T13:59:08.567Z,8.20
2018-01-15T14:01:36.476Z,10.20
2018-01-15T14:04:04.341Z,10.07
2018-01-15T14:06:32.201Z,11.30
2018-01-15T14:09:00.022Z,8.97
2018-01-15T14:11:27.853Z,10.93
2018-01-15T14:13:55.709Z,11.27
2018-01-15T14:16:23.547Z,12.37
2018-01-15T14:18:51.383Z,11.87
2018-01-15T14:21:19.373Z,10.70
2018-01-15T14:23:47.198Z,12.67
2018-01-15T14:26:30.055Z,12.73
2018-01-15T14:28:57.960Z,11.63
2018-01-15T14:31:25.805Z,12.77
2018-01-15T14:33:53.690Z,11.60
2018-01-15T14:36:21.639Z,11.90
2018-01-15T14:38:49.484Z,11.83
2018-01-15T14:41:17.356Z,11.07
2018-01-15T14:43:45.217Z,13.47
2018-01-15T14:46:13.151Z,11.87
2018-01-15T14:48:41.035Z,12.87
2018-01-15T14:51:08.885Z,11.43
2018-01-15T14:53:36.755Z,10.17
2018-01-15T14:56:04.648Z,10.53
2018-01-15T14:58:32.488Z,12.60
2018-01-15T15:01:00.351Z,10.73
2018-01-15T15:03:28.215Z,12.00
2018-01-15T15:05:56.052Z,11.87
2018-01-15T15:08:23.970Z,9.20
2018-01-15T15:10:51.849Z,9.30
2018-01-15T15:13:19.763Z,11.83
2018-01-15T15:15:47.603Z,10.60
2018-01-15T15:18:15.494Z,12.20
2018-01-15T15:20:43.436Z,12.57
2018-01-15T15:23:11.309Z,12.80
2018-01-15T15:25:39.159Z,12.20
2018-01-15T15:28:07.033Z,10.80
2018-01-15T15:30:34.873Z,12.23
2018-01-15T15:33:02.759Z,11.73
2018-01-15T15:35:30.618Z,9.90
2018-01-15T15:37:58.847Z,12.37
2018-01-15T15:40:27.528Z,11.93
2018-01-15T15:42:55.416Z,12.10
2018-01-15T15:45:23.297Z,11.57
2018-01-15T15:47:51.183Z,11.50
2018-01-15T15:50:19.264Z,12.47
2018-01-15T15:52:47.193Z,11.90
2018-01-15T15:55:15.066Z,12.40
2018-01-15T15:57:42.896Z,11.17
2018-01-15T16:00:10.747Z,9.97
2018-01-15T16:02:38.660Z,10.87
2018-01-15T16:05:06.533Z,10.60
2018-01-15T16:07:34.471Z,11.13
2018-01-15T16:10:02.446Z,10.63
2018-01-15T16:12:30.301Z,11.83
2018-01-15T16:14:58.163Z,9.03
2018-01-15T16:17:26.021Z,13.03
2018-01-15T16:19:53.864Z,12.10
2018-01-15T16:22:27.852Z,10.40
2018-01-15T16:24:55.939Z,12.60
2018-01-15T16:27:23.827Z,13.03
2018-01-15T16:29:51.714Z,12.40
2018-01-15T16:32:19.697Z,11.17
2018-01-15T16:34:47.560Z,11.07
2018-01-15T16:37:15.430Z,11.27
2018-01-15T16:39:43.290Z,13.73
2018-01-15T16:42:11.141Z,10.97
2018-01-15T16:44:39.048Z,10.63
2018-01-15T16:47:06.919Z,11.10
2018-01-15T16:49:34.989Z,12.73
2018-01-15T16:52:02.881Z,12.37
2018-01-15T16:54:30.796Z,10.67
2018-01-15T16:56:58.688Z,10.70
2018-01-15T16:59:26.590Z,10.50
2018-01-15T17:01:54.445Z,12.97
2018-01-15T17:04:22.299Z,13.50
2018-01-15T17:06:50.161Z,12.00
2018-01-15T17:09:17.999Z,10.97
2018-01-15T17:11:45.962Z,12.50
2018-01-15T17:14:13.852Z,13.23
2018-01-15T17:16:41.710Z,12.90
2018-01-15T17:19:09.559Z,12.03
2018-01-15T17:21:37.453Z,13.43
2018-01-15T17:24:05.309Z,13.23
2018-01-15T17:26:33.173Z,13.17
2018-01-15T17:29:01.180Z,10.67
2018-01-15T17:31:29.028Z,11.27
2018-01-15T17:33:56.863Z,12.70
2018-01-15T17:36:24.778Z,11.50
2018-01-15T17:38:52.629Z,10.93
2018-01-15T17:41:20.471Z,11.20
2018-01-15T17:43:48.368Z,13.47
2018-01-15T17:46:16.235Z,12.93
2018-01-15T17:48:44.128Z,13.30
2018-01-15T17:51:12.017Z,14.73
2018-01-15T17:53:39.948Z,13.33
2018-01-15T17:56:07.944Z,12.07
2018-01-15T17:58:35.820Z,12.80
2018-01-15T18:01:10.629Z,8.77
2018-01-15T18:03:38.511Z,13.70
2018-01-15T18:06:06.381Z,13.50
2018-01-15T18:08:34.256Z,12.67
2018-01-15T18:11:02.152Z,14.50
2018-01-15T18:13:30.015Z,12.93
2018-01-15T18:15:58.021Z,13.17
2018-01-15T18:18:25.902Z,12.83
2018-01-15T18:20:53.744Z,13.67
2018-01-15T18:23:21.624Z,12.67
2018-01-15T18:25:49.500Z,12.27
2018-01-15T18:28:17.347Z,13.50
2018-01-15T18:30:45.182Z,14.37
2018-01-15T18:33:13.055Z,12.80
2018-01-15T18:35:40.968Z,12.20
2018-01-15T18:38:08.818Z,12.83
2018-01-15T18:40:36.787Z,12.33
2018-01-15T18:43:04.638Z,12.00
2018-01-15T18:45:32.489Z,11.73
2018-01-15T18:48:00.384Z,10.53
2018-01-15T18:50:28.310Z,12.27
2018-01-15T18:52:56.194Z,13.23
2018-01-15T18:55:24.061Z,13.00
2018-01-15T18:57:51.904Z,10.10
2018-01-15T19:00:19.763Z,13.80
2018-01-15T19:02:47.640Z,13.63
2018-01-15T19:05:15.490Z,12.67
2018-01-15T19:07:43.364Z,13.70
2018-01-15T19:10:11.230Z,12.17
2018-01-15T19:12:39.072Z,13.67
2018-01-15T19:15:06.912Z,12.87
2018-01-15T19:17:34.811Z,12.43
2018-01-15T19:20:02.662Z,12.33
2018-01-15T19:22:30.498Z,12.20
2018-01-15T19:24:58.412Z,10.60
2018-01-15T19:27:26.400Z,9.40
2018-01-15T19:29:54.293Z,13.03
2018-01-15T19:32:22.316Z,13.13
2018-01-15T19:34:56.371Z,13.20
2018-01-15T19:37:24.348Z,12.37
2018-01-15T19:39:52.200Z,10.10
2018-01-15T19:42:20.216Z,12.97
2018-01-15T19:44:54.099Z,13.53
2018-01-15T19:47:28.020Z,11.93
2018-01-15T19:50:02.004Z,10.23
2018-01-15T19:52:35.884Z,9.53
2018-01-15T19:55:09.887Z,11.03
2018-01-15T19:57:45.031Z,12.93
2018-01-15T20:00:19.079Z,12.23
2018-01-15T20:02:52.934Z,12.63
2018-01-15T20:05:26.865Z,11.70
2018-01-15T20:08:00.868Z,14.50
2018-01-15T20:10:34.870Z,12.27
2018-01-15T20:13:02.738Z,11.70
2018-01-15T20:15:30.632Z,12.07
2018-01-15T20:17:58.510Z,10.87
2018-01-15T20:20:26.358Z,13.47
2018-01-15T20:22:54.201Z,10.00
2018-01-15T20:25:22.074Z,12.90
2018-01-15T20:27:49.919Z,10.93
2018-01-15T20:30:17.759Z,14.67
2018-01-15T20:32:45.625Z,11.70
2018-01-15T20:35:13.457Z,15.40
2018-01-15T20:37:41.294Z,11.37
2018-01-15T20:40:09.186Z,11.70
2018-01-15T20:42:37.035Z,12.60
2018-01-15T20:45:04.896Z,11.13
2018-01-15T20:47:32.797Z,13.50
2018-01-15T20:50:00.626Z,11.57
2018-01-15T20:52:28.458Z,7.57
2018-01-15T20:54:56.344Z,11.73
2018-01-15T20:57:24.163Z,12.10
2018-01-15T20:59:52.015Z,12.40
2018-01-15T21:02:19.885Z,10.13
2018-01-15T21:04:47.720Z,11.90
2018-01-15T21:07:15.546Z,12.70
2018-01-15T21:09:43.414Z,13.03
2018-01-15T21:12:11.284Z,9.63
2018-01-15T21:14:39.114Z,11.57
2018-01-15T21:17:07.003Z,11.40
2018-01-15T21:19:34.873Z,11.80
2018-01-15T21:22:02.728Z,9.93
2018-01-15T21:24:30.606Z,11.70
2018-01-15T21:26:58.440Z,11.17
2018-01-15T21:29:26.304Z,10.10
2018-01-15T21:31:54.158Z,11.00
2018-01-15T21:34:22.000Z,10.40
2018-01-15T21:36:49.862Z,8.97
2018-01-15T21:39:17.726Z,12.50
2018-01-15T21:41:45.597Z,12.03
2018-01-15T21:44:13.434Z,10.20
2018-01-15T21:46:41.312Z,13.00
2018-01-15T21:49:09.156Z,13.17
2018-01-15T21:51:37.001Z,11.63
2018-01-15T21:54:04.883Z,11.80
2018-01-15T21:56:32.720Z,14.20
2018-01-15T21:59:00.589Z,9.70
2018-01-15T22:01:29.629Z,14.17
2018-01-15T22:03:57.551Z,11.23
2018-01-15T22:06:25.486Z,12.97
2018-01-15T22:08:53.644Z,12.67
2018-01-15T22:11:21.528Z,12.10
2018-01-15T22:13:49.400Z,12.80
2018-01-15T22:16:17.268Z,14.13
2018-01-15T22:18:45.108Z,9.50
2018-01-15T22:21:13.021Z,11.47
2018-01-15T22:23:40.914Z,11.60
2018-01-15T22:26:08.763Z,13.53
2018-01-15T22:28:36.620Z,12.97
2018-01-15T22:31:04.528Z,11.30
2018-01-15T22:33:32.399Z,7.27
2018-01-15T22:36:00.323Z,10.17
2018-01-15T22:38:29.749Z,12.47
2018-01-15T22:40:57.987Z,11.07
2018-01-15T22:43:25.915Z,11.90
2018-01-15T22:45:53.829Z,9.90
2018-01-15T22:48:21.702Z,11.93
2018-01-15T22:50:49.700Z,12.30
2018-01-15T22:53:17.590Z,11.43
2018-01-15T22:55:45.521Z,11.10
2018-01-15T22:58:13.369Z,11.77
2018-01-15T23:00:43.984Z,9.90
2018-01-15T23:03:11.928Z,12.30
2018-01-15T23:05:39.982Z,10.90
2018-01-15T23:08:08.080Z,11.00
2018-01-15T23:10:39.387Z,10.80
2018-01-15T23:13:10.929Z,11.87
2018-01-15T23:15:38.897Z,11.10
2018-01-15T23:18:06.792Z,11.17
2018-01-15T23:20:34.667Z,9.60
2018-01-15T23:23:02.505Z,11.03
2018-01-15T23:25:30.344Z,10.57
2018-01-15T23:27:58.219Z,10.80
2018-01-15T23:30:26.089Z,11.07
2018-01-15T23:32:53.991Z,12.00
2018-01-15T23:35:21.908Z,9.07
2018-01-15T23:37:49.728Z,10.50
2018-01-15T23:40:17.740Z,10.63
2018-01-15T23:42:45.584Z,10.43
2018-01-15T23:45:13.773Z,9.77
2018-01-15T23:47:41.670Z,12.10
2018-01-15T23:50:09.574Z,13.70
2018-01-15T23:52:37.447Z,12.80
2018-01-15T23:55:05.312Z,10.80
2018-01-15T23:57:33.151Z,9.20
